sensor_id;sensor_type;location;lat;lon;timestamp;temperature;humidity
22698;DHT22;11516;51.612;7.510;2023-07-09T00:02:24;22.60;99.90
22698;DHT22;11516;51.612;7.510;2023-07-09T00:04:49;22.50;99.90
22698;DHT22;11516;51.612;7.510;2023-07-09T00:07:20;22.50;99.90
22698;DHT22;11516;51.612;7.510;2023-07-09T00:09:47;22.50;99.90
22698;DHT22;11516;51.612;7.510;2023-07-09T00:12:14;22.40;99.90
22698;DHT22;11516;51.612;7.510;2023-07-09T00:14:40;22.40;99.90
22698;DHT22;11516;51.612;7.510;2023-07-09T00:17:25;22.40;99.90
22698;DHT22;11516;51.612;7.510;2023-07-09T00:19:52;22.30;99.90
22698;DHT22;11516;51.612;7.510;2023-07-09T00:22:18;22.30;99.90
22698;DHT22;11516;51.612;7.510;2023-07-09T00:24:49;22.20;99.90
22698;DHT22;11516;51.612;7.510;2023-07-09T00:27:17;22.10;99.90
22698;DHT22;11516;51.612;7.510;2023-07-09T00:29:44;22.10;99.90
22698;DHT22;11516;51.612;7.510;2023-07-09T00:32:15;22.10;99.90
22698;DHT22;11516;51.612;7.510;2023-07-09T00:34:42;22.10;99.90
22698;DHT22;11516;51.612;7.510;2023-07-09T00:37:15;22.00;99.90
22698;DHT22;11516;51.612;7.510;2023-07-09T00:39:43;22.00;99.90
22698;DHT22;11516;51.612;7.510;2023-07-09T00:42:12;21.90;99.90
22698;DHT22;11516;51.612;7.510;2023-07-09T00:44:40;21.90;99.90
22698;DHT22;11516;51.612;7.510;2023-07-09T00:47:28;21.80;99.90
22698;DHT22;11516;51.612;7.510;2023-07-09T00:50:10;21.80;99.90
22698;DHT22;11516;51.612;7.510;2023-07-09T00:52:49;21.70;99.90
22698;DHT22;11516;51.612;7.510;2023-07-09T00:55:19;21.70;99.90
22698;DHT22;11516;51.612;7.510;2023-07-09T00:57:46;21.70;99.90
22698;DHT22;11516;51.612;7.510;2023-07-09T01:00:21;21.60;99.90
22698;DHT22;11516;51.612;7.510;2023-07-09T01:02:48;21.60;99.90
22698;DHT22;11516;51.612;7.510;2023-07-09T01:05:15;21.60;99.90
22698;DHT22;11516;51.612;7.510;2023-07-09T01:07:42;21.60;99.90
22698;DHT22;11516;51.612;7.510;2023-07-09T01:10:12;21.60;99.90
22698;DHT22;11516;51.612;7.510;2023-07-09T01:12:39;21.60;99.90
22698;DHT22;11516;51.612;7.510;2023-07-09T01:15:05;21.60;99.90
22698;DHT22;11516;51.612;7.510;2023-07-09T01:17:33;21.50;99.90
22698;DHT22;11516;51.612;7.510;2023-07-09T01:19:59;21.50;99.90
22698;DHT22;11516;51.612;7.510;2023-07-09T01:22:25;21.50;99.90
22698;DHT22;11516;51.612;7.510;2023-07-09T01:25:03;21.50;99.90
22698;DHT22;11516;51.612;7.510;2023-07-09T01:30:05;21.40;99.90
22698;DHT22;11516;51.612;7.510;2023-07-09T01:32:31;21.40;99.90
22698;DHT22;11516;51.612;7.510;2023-07-09T01:35:01;21.30;99.90
22698;DHT22;11516;51.612;7.510;2023-07-09T01:37:34;21.30;99.90
22698;DHT22;11516;51.612;7.510;2023-07-09T01:40:00;21.30;99.90
22698;DHT22;11516;51.612;7.510;2023-07-09T01:42:27;21.20;99.90
22698;DHT22;11516;51.612;7.510;2023-07-09T01:44:54;21.30;99.90
22698;DHT22;11516;51.612;7.510;2023-07-09T01:47:20;21.30;99.90
22698;DHT22;11516;51.612;7.510;2023-07-09T01:49:46;21.20;99.90
22698;DHT22;11516;51.612;7.510;2023-07-09T01:52:12;21.20;99.90
22698;DHT22;11516;51.612;7.510;2023-07-09T01:54:39;21.10;99.90
22698;DHT22;11516;51.612;7.510;2023-07-09T01:59:49;21.00;99.90
22698;DHT22;11516;51.612;7.510;2023-07-09T02:02:16;21.00;99.90
22698;DHT22;11516;51.612;7.510;2023-07-09T02:04:51;21.00;99.90
22698;DHT22;11516;51.612;7.510;2023-07-09T02:07:18;21.00;99.90
22698;DHT22;11516;51.612;7.510;2023-07-09T02:09:45;21.00;99.90
22698;DHT22;11516;51.612;7.510;2023-07-09T02:12:11;21.00;99.90
22698;DHT22;11516;51.612;7.510;2023-07-09T02:14:37;21.00;99.90
22698;DHT22;11516;51.612;7.510;2023-07-09T02:17:03;20.90;99.90
22698;DHT22;11516;51.612;7.510;2023-07-09T02:19:30;20.90;99.90
22698;DHT22;11516;51.612;7.510;2023-07-09T02:21:56;20.90;99.90
22698;DHT22;11516;51.612;7.510;2023-07-09T02:24:21;20.90;99.90
22698;DHT22;11516;51.612;7.510;2023-07-09T02:26:51;20.90;99.90
22698;DHT22;11516;51.612;7.510;2023-07-09T02:29:17;20.90;99.90
22698;DHT22;11516;51.612;7.510;2023-07-09T02:31:44;20.80;99.90
22698;DHT22;11516;51.612;7.510;2023-07-09T02:34:09;20.80;99.90
22698;DHT22;11516;51.612;7.510;2023-07-09T02:36:35;20.70;99.90
22698;DHT22;11516;51.612;7.510;2023-07-09T02:39:00;20.70;99.90
22698;DHT22;11516;51.612;7.510;2023-07-09T02:41:26;20.70;99.90
22698;DHT22;11516;51.612;7.510;2023-07-09T02:43:51;20.70;99.90
22698;DHT22;11516;51.612;7.510;2023-07-09T02:46:17;20.70;99.90
22698;DHT22;11516;51.612;7.510;2023-07-09T02:48:42;20.60;99.90
22698;DHT22;11516;51.612;7.510;2023-07-09T02:51:08;20.70;99.90
22698;DHT22;11516;51.612;7.510;2023-07-09T02:53:33;20.60;99.90
22698;DHT22;11516;51.612;7.510;2023-07-09T02:55:59;20.60;99.90
22698;DHT22;11516;51.612;7.510;2023-07-09T02:58:24;20.60;99.90
22698;DHT22;11516;51.612;7.510;2023-07-09T03:00:50;20.60;99.90
22698;DHT22;11516;51.612;7.510;2023-07-09T03:03:19;20.50;99.90
22698;DHT22;11516;51.612;7.510;2023-07-09T03:05:46;20.50;99.90
22698;DHT22;11516;51.612;7.510;2023-07-09T03:08:11;20.50;99.90
22698;DHT22;11516;51.612;7.510;2023-07-09T03:10:37;20.50;99.90
22698;DHT22;11516;51.612;7.510;2023-07-09T03:13:03;20.50;99.90
22698;DHT22;11516;51.612;7.510;2023-07-09T03:15:29;20.50;99.90
22698;DHT22;11516;51.612;7.510;2023-07-09T03:17:54;20.40;99.90
22698;DHT22;11516;51.612;7.510;2023-07-09T03:20:20;20.40;99.90
22698;DHT22;11516;51.612;7.510;2023-07-09T03:22:45;20.50;99.90
22698;DHT22;11516;51.612;7.510;2023-07-09T03:25:11;20.50;99.90
22698;DHT22;11516;51.612;7.510;2023-07-09T03:27:36;20.40;99.90
22698;DHT22;11516;51.612;7.510;2023-07-09T03:30:02;20.50;99.90
22698;DHT22;11516;51.612;7.510;2023-07-09T03:32:28;20.40;99.90
22698;DHT22;11516;51.612;7.510;2023-07-09T03:34:53;20.40;99.90
22698;DHT22;11516;51.612;7.510;2023-07-09T03:37:19;20.40;99.90
22698;DHT22;11516;51.612;7.510;2023-07-09T03:39:47;20.40;99.90
22698;DHT22;11516;51.612;7.510;2023-07-09T03:42:13;20.40;99.90
22698;DHT22;11516;51.612;7.510;2023-07-09T03:44:39;20.40;99.90
22698;DHT22;11516;51.612;7.510;2023-07-09T03:47:04;20.40;99.90
22698;DHT22;11516;51.612;7.510;2023-07-09T03:49:30;20.40;99.90
22698;DHT22;11516;51.612;7.510;2023-07-09T03:51:55;20.40;99.90
22698;DHT22;11516;51.612;7.510;2023-07-09T03:54:21;20.30;99.90
22698;DHT22;11516;51.612;7.510;2023-07-09T03:56:46;20.30;99.90
22698;DHT22;11516;51.612;7.510;2023-07-09T03:59:12;20.30;99.90
22698;DHT22;11516;51.612;7.510;2023-07-09T04:01:37;20.30;99.90
22698;DHT22;11516;51.612;7.510;2023-07-09T04:04:03;20.30;99.90
22698;DHT22;11516;51.612;7.510;2023-07-09T04:06:29;20.40;99.90
22698;DHT22;11516;51.612;7.510;2023-07-09T04:08:54;20.40;99.90
22698;DHT22;11516;51.612;7.510;2023-07-09T04:11:20;20.40;99.90
22698;DHT22;11516;51.612;7.510;2023-07-09T04:13:45;20.40;99.90
22698;DHT22;11516;51.612;7.510;2023-07-09T04:16:11;20.40;99.90
22698;DHT22;11516;51.612;7.510;2023-07-09T04:18:37;20.40;99.90
22698;DHT22;11516;51.612;7.510;2023-07-09T04:21:03;20.40;99.90
22698;DHT22;11516;51.612;7.510;2023-07-09T04:23:29;20.50;99.90
22698;DHT22;11516;51.612;7.510;2023-07-09T04:25:54;20.50;99.90
22698;DHT22;11516;51.612;7.510;2023-07-09T04:28:20;20.50;99.90
22698;DHT22;11516;51.612;7.510;2023-07-09T04:30:50;20.50;99.90
22698;DHT22;11516;51.612;7.510;2023-07-09T04:33:17;20.60;99.90
22698;DHT22;11516;51.612;7.510;2023-07-09T04:35:45;20.60;99.90
22698;DHT22;11516;51.612;7.510;2023-07-09T04:38:11;20.60;99.90
22698;DHT22;11516;51.612;7.510;2023-07-09T04:40:36;20.70;99.90
22698;DHT22;11516;51.612;7.510;2023-07-09T04:43:02;20.70;99.90
22698;DHT22;11516;51.612;7.510;2023-07-09T04:45:28;20.70;99.90
22698;DHT22;11516;51.612;7.510;2023-07-09T04:47:53;20.70;99.90
22698;DHT22;11516;51.612;7.510;2023-07-09T04:50:19;20.70;99.90
22698;DHT22;11516;51.612;7.510;2023-07-09T04:52:44;20.80;99.90
22698;DHT22;11516;51.612;7.510;2023-07-09T04:55:10;20.80;99.90
22698;DHT22;11516;51.612;7.510;2023-07-09T04:57:36;20.80;99.90
22698;DHT22;11516;51.612;7.510;2023-07-09T05:00:03;20.90;99.90
22698;DHT22;11516;51.612;7.510;2023-07-09T05:02:30;21.00;99.90
22698;DHT22;11516;51.612;7.510;2023-07-09T05:04:56;21.00;99.90
22698;DHT22;11516;51.612;7.510;2023-07-09T05:07:22;21.10;99.90
22698;DHT22;11516;51.612;7.510;2023-07-09T05:09:47;21.10;99.90
22698;DHT22;11516;51.612;7.510;2023-07-09T05:12:13;21.20;99.90
22698;DHT22;11516;51.612;7.510;2023-07-09T05:14:39;21.30;99.90
22698;DHT22;11516;51.612;7.510;2023-07-09T05:17:06;21.30;99.90
22698;DHT22;11516;51.612;7.510;2023-07-09T05:19:32;21.40;99.90
22698;DHT22;11516;51.612;7.510;2023-07-09T05:21:57;21.40;99.90
22698;DHT22;11516;51.612;7.510;2023-07-09T05:24:23;21.50;99.90
22698;DHT22;11516;51.612;7.510;2023-07-09T05:26:49;21.60;99.90
22698;DHT22;11516;51.612;7.510;2023-07-09T05:29:14;21.70;99.90
22698;DHT22;11516;51.612;7.510;2023-07-09T05:31:40;21.80;99.90
22698;DHT22;11516;51.612;7.510;2023-07-09T05:34:07;21.90;99.90
22698;DHT22;11516;51.612;7.510;2023-07-09T05:36:33;22.00;99.90
22698;DHT22;11516;51.612;7.510;2023-07-09T05:38:59;22.10;99.90
22698;DHT22;11516;51.612;7.510;2023-07-09T05:41:24;22.20;99.90
22698;DHT22;11516;51.612;7.510;2023-07-09T05:43:51;22.30;99.90
22698;DHT22;11516;51.612;7.510;2023-07-09T05:46:18;22.40;99.90
22698;DHT22;11516;51.612;7.510;2023-07-09T05:48:44;22.50;99.90
22698;DHT22;11516;51.612;7.510;2023-07-09T05:51:09;22.60;99.90
22698;DHT22;11516;51.612;7.510;2023-07-09T05:53:35;22.70;99.90
22698;DHT22;11516;51.612;7.510;2023-07-09T05:56:01;22.80;99.90
22698;DHT22;11516;51.612;7.510;2023-07-09T05:58:26;22.90;99.90
22698;DHT22;11516;51.612;7.510;2023-07-09T06:00:53;23.10;99.90
22698;DHT22;11516;51.612;7.510;2023-07-09T06:03:20;23.10;99.90
22698;DHT22;11516;51.612;7.510;2023-07-09T06:05:47;23.30;99.90
22698;DHT22;11516;51.612;7.510;2023-07-09T06:08:15;23.30;99.90
22698;DHT22;11516;51.612;7.510;2023-07-09T06:11:00;23.40;99.90
22698;DHT22;11516;51.612;7.510;2023-07-09T06:13:28;23.50;99.90
22698;DHT22;11516;51.612;7.510;2023-07-09T06:15:56;23.60;99.90
22698;DHT22;11516;51.612;7.510;2023-07-09T06:18:23;23.70;99.90
22698;DHT22;11516;51.612;7.510;2023-07-09T06:20:51;23.80;99.90
22698;DHT22;11516;51.612;7.510;2023-07-09T06:23:17;23.80;99.90
22698;DHT22;11516;51.612;7.510;2023-07-09T06:25:44;24.00;99.90
22698;DHT22;11516;51.612;7.510;2023-07-09T06:28:14;24.10;99.90
22698;DHT22;11516;51.612;7.510;2023-07-09T06:30:40;24.20;99.90
22698;DHT22;11516;51.612;7.510;2023-07-09T06:33:06;24.40;99.90
22698;DHT22;11516;51.612;7.510;2023-07-09T06:35:32;24.40;99.90
22698;DHT22;11516;51.612;7.510;2023-07-09T06:37:58;24.50;99.90
22698;DHT22;11516;51.612;7.510;2023-07-09T06:40:23;24.70;99.90
22698;DHT22;11516;51.612;7.510;2023-07-09T06:42:50;24.80;99.90
22698;DHT22;11516;51.612;7.510;2023-07-09T06:45:15;24.80;99.90
22698;DHT22;11516;51.612;7.510;2023-07-09T06:47:41;25.00;99.90
22698;DHT22;11516;51.612;7.510;2023-07-09T06:50:07;25.10;99.90
22698;DHT22;11516;51.612;7.510;2023-07-09T06:52:32;25.20;99.90
22698;DHT22;11516;51.612;7.510;2023-07-09T06:54:58;25.20;99.90
22698;DHT22;11516;51.612;7.510;2023-07-09T06:57:23;25.30;99.90
22698;DHT22;11516;51.612;7.510;2023-07-09T06:59:49;25.40;99.90
22698;DHT22;11516;51.612;7.510;2023-07-09T07:02:14;25.50;99.90
22698;DHT22;11516;51.612;7.510;2023-07-09T07:04:40;25.50;99.90
22698;DHT22;11516;51.612;7.510;2023-07-09T07:07:07;25.50;99.90
22698;DHT22;11516;51.612;7.510;2023-07-09T07:09:32;25.70;99.90
22698;DHT22;11516;51.612;7.510;2023-07-09T07:11:58;25.80;99.90
22698;DHT22;11516;51.612;7.510;2023-07-09T07:14:23;26.00;99.90
22698;DHT22;11516;51.612;7.510;2023-07-09T07:16:49;26.00;99.90
22698;DHT22;11516;51.612;7.510;2023-07-09T07:19:15;26.20;99.90
22698;DHT22;11516;51.612;7.510;2023-07-09T07:21:40;26.10;99.90
22698;DHT22;11516;51.612;7.510;2023-07-09T07:24:06;26.30;99.90
22698;DHT22;11516;51.612;7.510;2023-07-09T07:26:32;26.40;99.90
22698;DHT22;11516;51.612;7.510;2023-07-09T07:28:57;26.50;99.90
22698;DHT22;11516;51.612;7.510;2023-07-09T07:31:23;26.60;99.90
22698;DHT22;11516;51.612;7.510;2023-07-09T07:33:48;26.70;99.90
22698;DHT22;11516;51.612;7.510;2023-07-09T07:36:14;26.70;99.90
22698;DHT22;11516;51.612;7.510;2023-07-09T07:38:39;26.80;99.90
22698;DHT22;11516;51.612;7.510;2023-07-09T07:41:05;26.80;99.90
22698;DHT22;11516;51.612;7.510;2023-07-09T07:43:30;26.90;99.90
22698;DHT22;11516;51.612;7.510;2023-07-09T07:45:56;27.00;99.90
22698;DHT22;11516;51.612;7.510;2023-07-09T07:48:21;27.20;99.90
22698;DHT22;11516;51.612;7.510;2023-07-09T07:50:47;27.30;99.90
22698;DHT22;11516;51.612;7.510;2023-07-09T07:53:16;27.40;99.90
22698;DHT22;11516;51.612;7.510;2023-07-09T07:55:42;27.60;99.90
22698;DHT22;11516;51.612;7.510;2023-07-09T07:58:12;27.70;99.90
22698;DHT22;11516;51.612;7.510;2023-07-09T08:00:38;27.80;99.90
22698;DHT22;11516;51.612;7.510;2023-07-09T08:03:04;27.80;99.90
22698;DHT22;11516;51.612;7.510;2023-07-09T08:05:30;27.90;99.90
22698;DHT22;11516;51.612;7.510;2023-07-09T08:07:55;27.90;99.90
22698;DHT22;11516;51.612;7.510;2023-07-09T08:10:21;27.90;99.90
22698;DHT22;11516;51.612;7.510;2023-07-09T08:12:47;28.10;99.90
22698;DHT22;11516;51.612;7.510;2023-07-09T08:15:13;28.20;99.90
22698;DHT22;11516;51.612;7.510;2023-07-09T08:17:38;28.30;99.90
22698;DHT22;11516;51.612;7.510;2023-07-09T08:20:05;28.50;99.90
22698;DHT22;11516;51.612;7.510;2023-07-09T08:22:30;28.60;99.90
22698;DHT22;11516;51.612;7.510;2023-07-09T08:24:56;28.70;99.90
22698;DHT22;11516;51.612;7.510;2023-07-09T08:27:21;28.70;99.90
22698;DHT22;11516;51.612;7.510;2023-07-09T08:29:47;28.80;99.90
22698;DHT22;11516;51.612;7.510;2023-07-09T08:32:13;28.90;99.90
22698;DHT22;11516;51.612;7.510;2023-07-09T08:34:40;29.00;99.90
22698;DHT22;11516;51.612;7.510;2023-07-09T08:37:07;29.00;99.90
22698;DHT22;11516;51.612;7.510;2023-07-09T08:39:33;29.00;99.90
22698;DHT22;11516;51.612;7.510;2023-07-09T08:42:04;29.00;99.90
22698;DHT22;11516;51.612;7.510;2023-07-09T08:47:17;29.30;99.90
22698;DHT22;11516;51.612;7.510;2023-07-09T08:49:50;29.30;99.90
22698;DHT22;11516;51.612;7.510;2023-07-09T08:52:41;29.30;99.90
22698;DHT22;11516;51.612;7.510;2023-07-09T08:55:19;29.60;99.90
22698;DHT22;11516;51.612;7.510;2023-07-09T08:57:47;29.80;99.90
22698;DHT22;11516;51.612;7.510;2023-07-09T09:00:22;29.80;99.90
22698;DHT22;11516;51.612;7.510;2023-07-09T09:02:57;29.90;99.90
22698;DHT22;11516;51.612;7.510;2023-07-09T09:05:24;29.80;99.90
22698;DHT22;11516;51.612;7.510;2023-07-09T09:08:05;29.90;99.90
22698;DHT22;11516;51.612;7.510;2023-07-09T09:10:48;30.00;99.90
22698;DHT22;11516;51.612;7.510;2023-07-09T09:13:16;30.10;99.90
22698;DHT22;11516;51.612;7.510;2023-07-09T09:15:45;30.10;99.90
22698;DHT22;11516;51.612;7.510;2023-07-09T09:18:20;30.20;99.90
22698;DHT22;11516;51.612;7.510;2023-07-09T09:20:53;30.30;99.90
22698;DHT22;11516;51.612;7.510;2023-07-09T09:23:22;30.50;99.90
22698;DHT22;11516;51.612;7.510;2023-07-09T09:25:52;30.50;99.90
22698;DHT22;11516;51.612;7.510;2023-07-09T09:28:18;30.60;98.90
22698;DHT22;11516;51.612;7.510;2023-07-09T09:30:44;30.60;99.40
22698;DHT22;11516;51.612;7.510;2023-07-09T09:33:11;30.70;98.80
22698;DHT22;11516;51.612;7.510;2023-07-09T09:35:42;30.80;98.20
22698;DHT22;11516;51.612;7.510;2023-07-09T09:38:17;30.80;97.70
22698;DHT22;11516;51.612;7.510;2023-07-09T09:40:42;30.90;97.10
22698;DHT22;11516;51.612;7.510;2023-07-09T09:43:17;30.80;97.40
22698;DHT22;11516;51.612;7.510;2023-07-09T09:45:46;30.80;98.10
22698;DHT22;11516;51.612;7.510;2023-07-09T09:48:34;30.90;97.60
22698;DHT22;11516;51.612;7.510;2023-07-09T09:51:03;31.00;97.50
22698;DHT22;11516;51.612;7.510;2023-07-09T09:53:30;31.00;97.00
22698;DHT22;11516;51.612;7.510;2023-07-09T09:56:04;31.10;95.80
22698;DHT22;11516;51.612;7.510;2023-07-09T09:58:30;31.20;96.00
22698;DHT22;11516;51.612;7.510;2023-07-09T10:00:57;31.20;95.50
22698;DHT22;11516;51.612;7.510;2023-07-09T10:03:37;31.30;95.60
22698;DHT22;11516;51.612;7.510;2023-07-09T10:06:18;31.40;94.80
22698;DHT22;11516;51.612;7.510;2023-07-09T10:11:31;31.60;95.10
22698;DHT22;11516;51.612;7.510;2023-07-09T10:14:08;31.60;94.50
22698;DHT22;11516;51.612;7.510;2023-07-09T10:16:44;31.70;94.20
22698;DHT22;11516;51.612;7.510;2023-07-09T10:19:20;31.60;93.90
22698;DHT22;11516;51.612;7.510;2023-07-09T10:22:00;31.70;92.80
22698;DHT22;11516;51.612;7.510;2023-07-09T10:27:29;31.90;93.90
22698;DHT22;11516;51.612;7.510;2023-07-09T10:30:19;32.00;93.00
22698;DHT22;11516;51.612;7.510;2023-07-09T10:40:41;32.40;92.00
22698;DHT22;11516;51.612;7.510;2023-07-09T10:43:13;32.60;93.70
22698;DHT22;11516;51.612;7.510;2023-07-09T10:45:44;32.80;92.90
22698;DHT22;11516;51.612;7.510;2023-07-09T10:48:35;32.90;90.90
22698;DHT22;11516;51.612;7.510;2023-07-09T10:51:02;33.10;90.70
22698;DHT22;11516;51.612;7.510;2023-07-09T10:53:40;33.20;88.30
22698;DHT22;11516;51.612;7.510;2023-07-09T10:56:16;33.20;89.70
22698;DHT22;11516;51.612;7.510;2023-07-09T11:01:37;33.60;91.60
22698;DHT22;11516;51.612;7.510;2023-07-09T11:04:10;34.40;89.70
22698;DHT22;11516;51.612;7.510;2023-07-09T11:06:43;35.20;86.10
22698;DHT22;11516;51.612;7.510;2023-07-09T11:09:22;36.20;81.30
22698;DHT22;11516;51.612;7.510;2023-07-09T11:11:50;36.80;80.00
22698;DHT22;11516;51.612;7.510;2023-07-09T11:14:26;37.40;78.50
22698;DHT22;11516;51.612;7.510;2023-07-09T11:16:55;37.40;75.10
22698;DHT22;11516;51.612;7.510;2023-07-09T11:19:22;36.90;74.10
22698;DHT22;11516;51.612;7.510;2023-07-09T11:27:29;37.40;71.50
22698;DHT22;11516;51.612;7.510;2023-07-09T11:29:59;37.60;71.60
22698;DHT22;11516;51.612;7.510;2023-07-09T11:32:26;38.50;72.80
22698;DHT22;11516;51.612;7.510;2023-07-09T11:34:52;39.30;71.60
22698;DHT22;11516;51.612;7.510;2023-07-09T11:37:25;39.50;68.00
22698;DHT22;11516;51.612;7.510;2023-07-09T11:39:51;39.00;68.70
22698;DHT22;11516;51.612;7.510;2023-07-09T11:42:30;39.00;67.40
22698;DHT22;11516;51.612;7.510;2023-07-09T11:45:17;39.10;66.80
22698;DHT22;11516;51.612;7.510;2023-07-09T11:47:46;39.40;70.00
22698;DHT22;11516;51.612;7.510;2023-07-09T11:50:30;39.20;67.20
22698;DHT22;11516;51.612;7.510;2023-07-09T11:56:01;39.40;67.60
22698;DHT22;11516;51.612;7.510;2023-07-09T11:58:27;39.50;64.10
22698;DHT22;11516;51.612;7.510;2023-07-09T12:00:57;39.60;66.30
22698;DHT22;11516;51.612;7.510;2023-07-09T12:03:30;39.90;64.50
22698;DHT22;11516;51.612;7.510;2023-07-09T12:06:02;39.80;64.80
22698;DHT22;11516;51.612;7.510;2023-07-09T12:08:37;39.80;65.30
22698;DHT22;11516;51.612;7.510;2023-07-09T12:11:04;40.10;66.90
22698;DHT22;11516;51.612;7.510;2023-07-09T12:13:37;40.20;64.90
22698;DHT22;11516;51.612;7.510;2023-07-09T12:16:03;39.70;64.80
22698;DHT22;11516;51.612;7.510;2023-07-09T12:18:29;39.20;63.90
22698;DHT22;11516;51.612;7.510;2023-07-09T12:20:55;39.20;65.50
22698;DHT22;11516;51.612;7.510;2023-07-09T12:25:50;39.80;65.20
22698;DHT22;11516;51.612;7.510;2023-07-09T12:28:17;40.00;64.50
22698;DHT22;11516;51.612;7.510;2023-07-09T12:30:51;40.20;63.00
22698;DHT22;11516;51.612;7.510;2023-07-09T12:33:22;40.30;65.20
22698;DHT22;11516;51.612;7.510;2023-07-09T12:35:59;40.00;63.80
22698;DHT22;11516;51.612;7.510;2023-07-09T12:38:29;39.60;63.00
22698;DHT22;11516;51.612;7.510;2023-07-09T12:40:55;39.30;65.10
22698;DHT22;11516;51.612;7.510;2023-07-09T12:43:31;39.30;64.50
22698;DHT22;11516;51.612;7.510;2023-07-09T12:45:58;39.40;63.10
22698;DHT22;11516;51.612;7.510;2023-07-09T12:48:27;39.50;63.80
22698;DHT22;11516;51.612;7.510;2023-07-09T12:50:56;39.70;63.10
22698;DHT22;11516;51.612;7.510;2023-07-09T12:53:24;39.80;61.40
22698;DHT22;11516;51.612;7.510;2023-07-09T12:55:54;38.90;63.80
22698;DHT22;11516;51.612;7.510;2023-07-09T12:58:22;38.50;65.70
22698;DHT22;11516;51.612;7.510;2023-07-09T13:00:51;38.00;66.80
22698;DHT22;11516;51.612;7.510;2023-07-09T13:03:24;37.70;65.50
22698;DHT22;11516;51.612;7.510;2023-07-09T13:05:52;37.50;67.90
22698;DHT22;11516;51.612;7.510;2023-07-09T13:08:18;37.40;67.20
22698;DHT22;11516;51.612;7.510;2023-07-09T13:10:44;37.50;65.40
22698;DHT22;11516;51.612;7.510;2023-07-09T13:13:13;37.50;65.80
22698;DHT22;11516;51.612;7.510;2023-07-09T13:15:41;37.80;69.10
22698;DHT22;11516;51.612;7.510;2023-07-09T13:18:11;38.00;64.80
22698;DHT22;11516;51.612;7.510;2023-07-09T13:20:42;38.40;66.70
22698;DHT22;11516;51.612;7.510;2023-07-09T13:23:16;38.70;67.00
22698;DHT22;11516;51.612;7.510;2023-07-09T13:25:42;39.00;64.90
22698;DHT22;11516;51.612;7.510;2023-07-09T13:28:20;39.20;63.00
22698;DHT22;11516;51.612;7.510;2023-07-09T13:30:51;39.10;66.00
22698;DHT22;11516;51.612;7.510;2023-07-09T13:33:17;38.80;65.10
22698;DHT22;11516;51.612;7.510;2023-07-09T13:35:44;38.40;66.10
22698;DHT22;11516;51.612;7.510;2023-07-09T13:38:15;37.90;64.70
22698;DHT22;11516;51.612;7.510;2023-07-09T13:40:42;37.40;64.90
22698;DHT22;11516;51.612;7.510;2023-07-09T13:43:15;37.20;62.50
22698;DHT22;11516;51.612;7.510;2023-07-09T13:45:41;37.10;62.30
22698;DHT22;11516;51.612;7.510;2023-07-09T13:48:20;36.90;62.30
22698;DHT22;11516;51.612;7.510;2023-07-09T13:50:49;36.80;62.50
22698;DHT22;11516;51.612;7.510;2023-07-09T13:53:17;36.40;62.90
22698;DHT22;11516;51.612;7.510;2023-07-09T13:55:44;36.10;62.90
22698;DHT22;11516;51.612;7.510;2023-07-09T13:58:11;35.90;63.50
22698;DHT22;11516;51.612;7.510;2023-07-09T14:00:37;35.70;63.30
22698;DHT22;11516;51.612;7.510;2023-07-09T14:03:04;35.60;64.10
22698;DHT22;11516;51.612;7.510;2023-07-09T14:05:32;35.40;63.70
22698;DHT22;11516;51.612;7.510;2023-07-09T14:07:58;35.40;64.30
22698;DHT22;11516;51.612;7.510;2023-07-09T14:10:24;35.30;64.50
22698;DHT22;11516;51.612;7.510;2023-07-09T14:12:50;35.20;64.40
22698;DHT22;11516;51.612;7.510;2023-07-09T14:15:18;35.30;64.60
22698;DHT22;11516;51.612;7.510;2023-07-09T14:17:45;35.10;64.70
22698;DHT22;11516;51.612;7.510;2023-07-09T14:20:13;35.00;65.20
22698;DHT22;11516;51.612;7.510;2023-07-09T14:22:39;34.80;65.70
22698;DHT22;11516;51.612;7.510;2023-07-09T14:25:17;34.70;65.60
22698;DHT22;11516;51.612;7.510;2023-07-09T14:27:43;34.70;65.90
22698;DHT22;11516;51.612;7.510;2023-07-09T14:30:14;34.70;68.00
22698;DHT22;11516;51.612;7.510;2023-07-09T14:32:41;34.60;67.60
22698;DHT22;11516;51.612;7.510;2023-07-09T14:35:19;34.50;71.60
22698;DHT22;11516;51.612;7.510;2023-07-09T14:37:47;34.30;69.50
22698;DHT22;11516;51.612;7.510;2023-07-09T14:40:17;34.10;69.00
22698;DHT22;11516;51.612;7.510;2023-07-09T14:42:43;33.90;67.70
22698;DHT22;11516;51.612;7.510;2023-07-09T14:47:45;33.60;69.90
22698;DHT22;11516;51.612;7.510;2023-07-09T14:50:11;33.30;72.30
22698;DHT22;11516;51.612;7.510;2023-07-09T14:52:38;33.10;74.30
22698;DHT22;11516;51.612;7.510;2023-07-09T14:55:05;32.80;72.60
22698;DHT22;11516;51.612;7.510;2023-07-09T14:57:33;32.60;72.10
22698;DHT22;11516;51.612;7.510;2023-07-09T14:59:59;32.60;71.70
22698;DHT22;11516;51.612;7.510;2023-07-09T15:02:35;32.50;72.80
22698;DHT22;11516;51.612;7.510;2023-07-09T15:05:03;32.30;72.00
22698;DHT22;11516;51.612;7.510;2023-07-09T15:07:29;32.30;74.00
22698;DHT22;11516;51.612;7.510;2023-07-09T15:09:59;32.10;75.60
22698;DHT22;11516;51.612;7.510;2023-07-09T15:12:28;31.90;75.80
22698;DHT22;11516;51.612;7.510;2023-07-09T15:15:12;31.80;76.30
22698;DHT22;11516;51.612;7.510;2023-07-09T15:17:38;31.70;76.40
22698;DHT22;11516;51.612;7.510;2023-07-09T15:20:04;31.60;76.70
22698;DHT22;11516;51.612;7.510;2023-07-09T15:22:34;31.90;74.50
22698;DHT22;11516;51.612;7.510;2023-07-09T15:25:00;31.70;78.20
22698;DHT22;11516;51.612;7.510;2023-07-09T15:27:27;30.20;82.30
22698;DHT22;11516;51.612;7.510;2023-07-09T15:29:52;29.10;85.10
22698;DHT22;11516;51.612;7.510;2023-07-09T15:32:18;28.30;88.40
22698;DHT22;11516;51.612;7.510;2023-07-09T15:34:44;27.80;91.30
22698;DHT22;11516;51.612;7.510;2023-07-09T15:37:12;27.00;95.10
22698;DHT22;11516;51.612;7.510;2023-07-09T15:39:39;25.80;97.20
22698;DHT22;11516;51.612;7.510;2023-07-09T15:42:12;24.80;99.90
22698;DHT22;11516;51.612;7.510;2023-07-09T15:44:38;24.10;99.90
22698;DHT22;11516;51.612;7.510;2023-07-09T15:47:04;22.60;99.90
22698;DHT22;11516;51.612;7.510;2023-07-09T15:49:32;21.70;99.90
22698;DHT22;11516;51.612;7.510;2023-07-09T15:51:57;21.40;99.90
22698;DHT22;11516;51.612;7.510;2023-07-09T15:54:24;21.20;99.90
22698;DHT22;11516;51.612;7.510;2023-07-09T15:56:51;21.10;99.90
22698;DHT22;11516;51.612;7.510;2023-07-09T15:59:26;21.00;99.90
22698;DHT22;11516;51.612;7.510;2023-07-09T16:01:53;21.00;99.90
22698;DHT22;11516;51.612;7.510;2023-07-09T16:04:18;20.80;99.90
22698;DHT22;11516;51.612;7.510;2023-07-09T16:06:44;20.90;99.90
22698;DHT22;11516;51.612;7.510;2023-07-09T16:09:10;20.90;99.90
22698;DHT22;11516;51.612;7.510;2023-07-09T16:11:37;20.70;99.90
22698;DHT22;11516;51.612;7.510;2023-07-09T16:14:17;20.60;99.90
22698;DHT22;11516;51.612;7.510;2023-07-09T16:16:45;20.80;99.90